»·PEaware :: N2PD L70-KLAS

N2PD :: L70-KLAS

FLIGHT INFORMATION

Flight Status: Arrived
Operator: Privately registered:
United States
More flights under this callsign
Pilot: Daniel P. (20187)
Aircraft: SOCATA TBM-900
(TBM9)
More flights by this aircraft type
Origin: L70 Agua Dulce
United States
Destination: KLAS McCarran Intl
United States
More flights between these airports :: More routes between these airports
Route: +PMD V12 BASAL V394 DAG CRESO4
File this flight plan on PilotEdge
Remarks:
Altitude:
(Current/Filed)
10ft
Speed:
(Current/Filed)
200kts
Departed: 04-Dec-18 08:56 AM
Arrived: 04-Dec-18 10:00 AM
Distance/Time
Traveled:
181nm/1:04
Distance/Time
To Go:
Arrived

Flight Plot

Page will automatically refresh every two minutes.

Flight plan parsing failed; only flown route is shown


Map Options




Map Legend


Flown Route
Filed Route
Departure Airport
Arrival Airport
Navaid (VOR, NDB)
Fix

Horizontal Profiles

Position Reports

Time Latitude Longitude Heading Altitude Ground
Speed
04-Dec-18 07:40 34.504169 -118.310967 27 2646ft 0kts
04-Dec-18 07:41 34.504169 -118.310967 27 2646ft 0kts
04-Dec-18 07:42 34.504169 -118.310967 27 2646ft 0kts
04-Dec-18 07:43 34.504169 -118.310967 27 2646ft 0kts
04-Dec-18 07:44 34.504169 -118.310967 27 2646ft 0kts
04-Dec-18 07:45 34.504169 -118.310967 27 2646ft 0kts
04-Dec-18 07:46 34.504169 -118.310967 27 2646ft 0kts
04-Dec-18 07:47 34.504169 -118.310967 27 2646ft 0kts
04-Dec-18 07:48 34.504169 -118.310967 27 2646ft 0kts
04-Dec-18 07:49 34.504169 -118.310967 27 2646ft 0kts
04-Dec-18 07:50 34.504169 -118.310967 27 2646ft 0kts
04-Dec-18 07:51 34.504169 -118.310967 27 2646ft 0kts
04-Dec-18 07:52 34.504169 -118.310967 27 2646ft 0kts
04-Dec-18 07:53 34.504169 -118.310967 27 2646ft 0kts
04-Dec-18 07:54 34.504169 -118.310967 27 2646ft 0kts
04-Dec-18 07:55 34.504169 -118.310967 27 2646ft 0kts
04-Dec-18 07:56 34.504169 -118.310967 27 2646ft 0kts
04-Dec-18 07:57 34.504169 -118.310967 27 2646ft 0kts
04-Dec-18 07:58 34.504169 -118.310967 27 2646ft 0kts
04-Dec-18 07:59 34.504169 -118.310967 27 2646ft 0kts
04-Dec-18 08:00 34.504169 -118.310967 27 2646ft 0kts
04-Dec-18 08:01 34.504170 -118.310966 27 2646ft 0kts
04-Dec-18 08:02 34.504170 -118.310966 27 2646ft 0kts
04-Dec-18 08:03 34.504169 -118.310967 27 2646ft 0kts
04-Dec-18 08:04 34.504169 -118.310967 27 2646ft 0kts
04-Dec-18 08:05 34.504169 -118.310967 27 2646ft 0kts
04-Dec-18 08:06 34.504169 -118.310967 27 2646ft 0kts
04-Dec-18 08:07 34.504169 -118.310967 27 2646ft 0kts
04-Dec-18 08:08 34.504169 -118.310967 27 2646ft 0kts
04-Dec-18 08:09 34.504169 -118.310967 27 2646ft 0kts
04-Dec-18 08:10 34.504169 -118.310967 27 2646ft 0kts
04-Dec-18 08:11 34.504169 -118.310967 27 2646ft 0kts
04-Dec-18 08:12 34.504169 -118.310967 27 2646ft 0kts
04-Dec-18 08:13 34.504169 -118.310967 27 2646ft 0kts
04-Dec-18 08:14 34.504169 -118.310967 27 2646ft 0kts
04-Dec-18 08:15 34.504169 -118.310967 27 2646ft 0kts
04-Dec-18 08:16 34.504169 -118.310967 27 2646ft 0kts
04-Dec-18 08:17 34.504169 -118.310967 27 2646ft 0kts
04-Dec-18 08:18 34.504169 -118.310967 27 2646ft 0kts
04-Dec-18 08:19 34.504169 -118.310967 27 2646ft 0kts
04-Dec-18 08:20 34.504169 -118.310967 27 2646ft 0kts
04-Dec-18 08:21 34.504169 -118.310967 27 2646ft 0kts
04-Dec-18 08:22 34.504169 -118.310967 27 2646ft 0kts
04-Dec-18 08:23 34.504169 -118.310967 27 2646ft 0kts
04-Dec-18 08:24 34.504169 -118.310967 27 2646ft 0kts
04-Dec-18 08:25 34.504169 -118.310967 27 2646ft 0kts
04-Dec-18 08:26 34.504169 -118.310967 27 2646ft 0kts
04-Dec-18 08:27 34.504169 -118.310967 27 2646ft 0kts
04-Dec-18 08:28 34.504169 -118.310967 27 2646ft 0kts
04-Dec-18 08:29 34.504169 -118.310967 27 2646ft 0kts
04-Dec-18 08:30 34.504169 -118.310967 27 2646ft 0kts
04-Dec-18 08:31 34.504169 -118.310967 27 2646ft 0kts
04-Dec-18 08:32 34.504169 -118.310967 27 2646ft 0kts
04-Dec-18 08:33 34.504169 -118.310967 27 2646ft 0kts
04-Dec-18 08:34 34.504169 -118.310967 27 2646ft 0kts
04-Dec-18 08:35 34.504169 -118.310967 27 2646ft 0kts
04-Dec-18 08:36 34.504169 -118.310967 27 2646ft 0kts
04-Dec-18 08:37 34.504169 -118.310967 27 2646ft 0kts
04-Dec-18 08:38 34.504169 -118.310967 27 2646ft 0kts
04-Dec-18 08:39 34.504169 -118.310967 27 2646ft 0kts
04-Dec-18 08:40 34.504169 -118.310967 27 2646ft 0kts
04-Dec-18 08:41 34.504169 -118.310967 27 2646ft 0kts
04-Dec-18 08:42 34.504169 -118.310967 27 2646ft 0kts
04-Dec-18 08:43 34.504169 -118.310967 27 2646ft 0kts
04-Dec-18 08:44 34.504169 -118.310967 27 2646ft 0kts
04-Dec-18 08:45 34.504169 -118.310967 27 2646ft 0kts
04-Dec-18 08:46 34.504169 -118.310967 27 2646ft 0kts
04-Dec-18 08:47 34.504169 -118.310967 27 2646ft 0kts
04-Dec-18 08:48 34.504170 -118.310966 27 2646ft 0kts
04-Dec-18 08:49 34.504174 -118.310963 27 2646ft 0kts
04-Dec-18 08:51 34.504234 -118.310933 9 2646ft 0kts
04-Dec-18 08:52 34.505114 -118.309703 52 2656ft 13kts
04-Dec-18 08:53 34.506994 -118.306764 13 2668ft 0kts
04-Dec-18 08:54 34.506995 -118.306764 12 2668ft 0kts
04-Dec-18 08:55 34.507316 -118.306678 5 2668ft 5kts
04-Dec-18 08:56 34.495180 -118.330386 248 3212ft 143kts
04-Dec-18 08:57 34.474618 -118.372474 205 5226ft 161kts
04-Dec-18 08:58 34.454341 -118.337519 54 7257ft 167kts
04-Dec-18 08:59 34.484553 -118.294490 47 9557ft 173kts
04-Dec-18 09:00 34.521531 -118.239753 51 10001ft 246kts
04-Dec-18 09:01 34.563384 -118.172884 51 9993ft 250kts
04-Dec-18 09:02 34.605459 -118.105459 51 9992ft 250kts
04-Dec-18 09:03 34.634896 -118.031395 83 9996ft 250kts
04-Dec-18 09:04 34.644135 -117.947662 83 9988ft 250kts
04-Dec-18 09:05 34.653252 -117.863958 83 9987ft 250kts
04-Dec-18 09:06 34.662352 -117.779853 83 9985ft 250kts
04-Dec-18 09:07 34.671371 -117.695944 83 9984ft 250kts
04-Dec-18 09:08 34.680329 -117.612030 83 9983ft 250kts
04-Dec-18 09:08 34.687714 -117.542417 83 9983ft 250kts
04-Dec-18 09:10 34.697785 -117.447391 85 11359ft 234kts
04-Dec-18 09:11 34.705788 -117.370785 86 12938ft 224kts
04-Dec-18 09:11 34.712109 -117.310000 88 14220ft 220kts
04-Dec-18 09:13 34.720968 -117.224232 89 16068ft 225kts
04-Dec-18 09:13 34.727582 -117.159450 88 17002ft 251kts
04-Dec-18 09:15 34.738683 -117.050741 87 16998ft 293kts
04-Dec-18 09:15 34.747063 -116.968226 86 17001ft 295kts
04-Dec-18 09:17 34.764859 -116.854541 53 17010ft 300kts
04-Dec-18 09:17 34.809784 -116.790052 47 17013ft 301kts
04-Dec-18 09:18 34.864959 -116.713579 47 17022ft 301kts
04-Dec-18 09:19 34.920084 -116.637091 47 17022ft 301kts
04-Dec-18 09:20 34.971672 -116.557524 61 17032ft 299kts
04-Dec-18 09:21 35.011178 -116.468642 61 17032ft 298kts
04-Dec-18 09:22 35.050659 -116.379632 61 17022ft 298kts
04-Dec-18 09:23 35.089297 -116.292317 62 17009ft 297kts
04-Dec-18 09:24 35.127228 -116.206368 62 17006ft 296kts
04-Dec-18 09:25 35.166135 -116.117986 62 17006ft 295kts
04-Dec-18 09:26 35.204706 -116.030158 62 16489ft 287kts
04-Dec-18 09:27 35.242191 -115.944546 62 15682ft 284kts
04-Dec-18 09:28 35.278959 -115.860388 62 14876ft 276kts
04-Dec-18 09:29 35.316197 -115.779879 47 14056ft 269kts
04-Dec-18 09:30 35.366134 -115.713220 46 13275ft 265kts
04-Dec-18 09:31 35.412979 -115.650705 46 12524ft 262kts
04-Dec-18 09:32 35.460407 -115.587279 46 11755ft 259kts
04-Dec-18 09:33 35.508706 -115.522570 46 10966ft 256kts
04-Dec-18 09:34 35.556549 -115.458411 45 10176ft 254kts
04-Dec-18 09:35 35.602580 -115.396574 45 10014ft 237kts
04-Dec-18 09:36 35.645006 -115.339477 46 10016ft 231kts
04-Dec-18 09:37 35.688031 -115.281467 46 10017ft 229kts
04-Dec-18 09:38 35.730497 -115.224115 46 10017ft 228kts
04-Dec-18 09:39 35.773365 -115.166257 43 10016ft 228kts
04-Dec-18 09:40 35.814902 -115.111228 46 9820ft 211kts
04-Dec-18 09:41 35.851750 -115.060163 46 8906ft 192kts
04-Dec-18 09:42 35.886365 -115.011799 46 7697ft 186kts
04-Dec-18 09:43 35.919821 -114.964908 46 7007ft 178kts
04-Dec-18 09:44 35.951838 -114.919796 46 7006ft 173kts
04-Dec-18 09:45 35.972771 -114.869528 91 7013ft 174kts
04-Dec-18 09:46 35.970342 -114.808466 91 6250ft 180kts
04-Dec-18 09:47 35.970850 -114.752924 48 5973ft 132kts
04-Dec-18 09:48 36.003726 -114.750974 351 5996ft 141kts
04-Dec-18 09:49 36.046236 -114.762764 309 5293ft 174kts
04-Dec-18 09:50 36.069669 -114.813627 295 5102ft 162kts
04-Dec-18 09:51 36.074129 -114.865420 272 5106ft 145kts
04-Dec-18 09:52 36.073837 -114.911188 270 4846ft 114kts
04-Dec-18 09:53 36.073574 -114.954459 274 4540ft 135kts
04-Dec-18 09:54 36.073322 -115.003968 271 3806ft 142kts
04-Dec-18 09:55 36.073318 -115.045343 272 3098ft 104kts
04-Dec-18 09:56 36.073646 -115.081233 271 2805ft 106kts
04-Dec-18 09:57 36.073650 -115.116819 271 2212ft 111kts
04-Dec-18 09:58 36.073665 -115.149813 270 2115ft 71kts
04-Dec-18 09:59 36.074739 -115.161368 330 2158ft 14kts
04-Dec-18 10:00 36.075017 -115.166332 269 2171ft 19kts
04-Dec-18 10:01 36.076155 -115.170834 13 2181ft 16kts
04-Dec-18 10:02 36.079189 -115.170581 12 2173ft 7kts
04-Dec-18 10:03 36.081470 -115.170236 267 2166ft 9kts
04-Dec-18 10:04 36.081680 -115.170515 349 2166ft 0kts
04-Dec-18 10:05 36.081680 -115.170515 349 2166ft 0kts

Navigation Log

Ident Type
Flight plan parsing failed, navigation log unavailable